sensor_id;sensor_type;location;lat;lon;timestamp;P1;durP1;ratioP1;P2;durP2;ratioP2
70558;SDS011;58108;48.094;11.838;2023-05-17T00:01:49;6.37;;;2.47;;
70558;SDS011;58108;48.094;11.838;2023-05-17T00:04:14;5.60;;;2.20;;
70558;SDS011;58108;48.094;11.838;2023-05-17T00:06:40;6.37;;;2.10;;
70558;SDS011;58108;48.094;11.838;2023-05-17T00:09:05;6.73;;;2.33;;
70558;SDS011;58108;48.094;11.838;2023-05-17T00:11:31;6.30;;;2.33;;
70558;SDS011;58108;48.094;11.838;2023-05-17T00:13:56;6.80;;;2.23;;
70558;SDS011;58108;48.094;11.838;2023-05-17T00:16:22;6.40;;;2.00;;
70558;SDS011;58108;48.094;11.838;2023-05-17T00:18:47;5.77;;;2.00;;
70558;SDS011;58108;48.094;11.838;2023-05-17T00:21:12;6.83;;;2.80;;
70558;SDS011;58108;48.094;11.838;2023-05-17T00:23:37;6.20;;;2.50;;
70558;SDS011;58108;48.094;11.838;2023-05-17T00:26:02;6.63;;;2.53;;
70558;SDS011;58108;48.094;11.838;2023-05-17T00:28:27;7.10;;;2.23;;
70558;SDS011;58108;48.094;11.838;2023-05-17T00:30:53;7.20;;;2.60;;
70558;SDS011;58108;48.094;11.838;2023-05-17T00:33:18;5.77;;;2.37;;
70558;SDS011;58108;48.094;11.838;2023-05-17T00:35:43;5.47;;;2.23;;
70558;SDS011;58108;48.094;11.838;2023-05-17T00:38:08;7.27;;;1.73;;
70558;SDS011;58108;48.094;11.838;2023-05-17T00:40:33;5.03;;;2.43;;
70558;SDS011;58108;48.094;11.838;2023-05-17T00:42:58;8.83;;;2.50;;
70558;SDS011;58108;48.094;11.838;2023-05-17T00:45:24;8.07;;;2.37;;
70558;SDS011;58108;48.094;11.838;2023-05-17T00:47:49;7.87;;;2.43;;
70558;SDS011;58108;48.094;11.838;2023-05-17T00:50:14;6.27;;;2.20;;
70558;SDS011;58108;48.094;11.838;2023-05-17T00:52:39;5.00;;;1.75;;
70558;SDS011;58108;48.094;11.838;2023-05-17T00:55:05;4.10;;;2.22;;
70558;SDS011;58108;48.094;11.838;2023-05-17T00:57:30;4.77;;;2.10;;
70558;SDS011;58108;48.094;11.838;2023-05-17T00:59:56;8.10;;;2.20;;
70558;SDS011;58108;48.094;11.838;2023-05-17T01:02:21;6.50;;;2.60;;
70558;SDS011;58108;48.094;11.838;2023-05-17T01:04:46;9.23;;;2.60;;
70558;SDS011;58108;48.094;11.838;2023-05-17T01:07:12;7.70;;;2.50;;
70558;SDS011;58108;48.094;11.838;2023-05-17T01:09:37;6.60;;;2.17;;
70558;SDS011;58108;48.094;11.838;2023-05-17T01:17:11;4.50;;;2.40;;
70558;SDS011;58108;48.094;11.838;2023-05-17T01:22:14;6.03;;;2.33;;
70558;SDS011;58108;48.094;11.838;2023-05-17T01:27:10;6.75;;;2.40;;
70558;SDS011;58108;48.094;11.838;2023-05-17T01:29:37;5.75;;;2.22;;
70558;SDS011;58108;48.094;11.838;2023-05-17T01:32:02;5.87;;;2.57;;
70558;SDS011;58108;48.094;11.838;2023-05-17T01:34:29;5.60;;;2.17;;
70558;SDS011;58108;48.094;11.838;2023-05-17T01:36:55;6.40;;;2.38;;
70558;SDS011;58108;48.094;11.838;2023-05-17T01:39:22;4.93;;;2.20;;
70558;SDS011;58108;48.094;11.838;2023-05-17T01:41:54;6.65;;;2.60;;
70558;SDS011;58108;48.094;11.838;2023-05-17T01:44:32;7.53;;;2.45;;
70558;SDS011;58108;48.094;11.838;2023-05-17T01:47:01;6.65;;;2.60;;
70558;SDS011;58108;48.094;11.838;2023-05-17T01:49:30;8.73;;;2.30;;
70558;SDS011;58108;48.094;11.838;2023-05-17T01:51:57;6.13;;;2.35;;
70558;SDS011;58108;48.094;11.838;2023-05-17T01:54:27;6.73;;;2.53;;
70558;SDS011;58108;48.094;11.838;2023-05-17T01:56:56;6.05;;;2.17;;
70558;SDS011;58108;48.094;11.838;2023-05-17T01:59:22;3.55;;;1.77;;
70558;SDS011;58108;48.094;11.838;2023-05-17T02:01:50;5.03;;;2.10;;
70558;SDS011;58108;48.094;11.838;2023-05-17T02:04:15;7.13;;;2.10;;
70558;SDS011;58108;48.094;11.838;2023-05-17T02:06:40;5.63;;;2.23;;
70558;SDS011;58108;48.094;11.838;2023-05-17T02:09:05;6.13;;;1.93;;
70558;SDS011;58108;48.094;11.838;2023-05-17T02:11:31;5.40;;;2.20;;
70558;SDS011;58108;48.094;11.838;2023-05-17T02:13:56;7.60;;;2.20;;
70558;SDS011;58108;48.094;11.838;2023-05-17T02:16:22;4.57;;;2.33;;
70558;SDS011;58108;48.094;11.838;2023-05-17T02:18:47;5.30;;;2.43;;
70558;SDS011;58108;48.094;11.838;2023-05-17T02:21:13;5.73;;;2.20;;
70558;SDS011;58108;48.094;11.838;2023-05-17T02:23:38;6.73;;;2.60;;
70558;SDS011;58108;48.094;11.838;2023-05-17T02:26:03;5.37;;;2.37;;
70558;SDS011;58108;48.094;11.838;2023-05-17T02:28:28;6.47;;;2.40;;
70558;SDS011;58108;48.094;11.838;2023-05-17T02:30:53;5.27;;;2.23;;
70558;SDS011;58108;48.094;11.838;2023-05-17T02:33:20;5.03;;;2.13;;
70558;SDS011;58108;48.094;11.838;2023-05-17T02:35:45;7.77;;;2.40;;
70558;SDS011;58108;48.094;11.838;2023-05-17T02:38:12;4.93;;;2.10;;
70558;SDS011;58108;48.094;11.838;2023-05-17T02:40:39;5.43;;;2.00;;
70558;SDS011;58108;48.094;11.838;2023-05-17T02:43:04;4.72;;;2.30;;
70558;SDS011;58108;48.094;11.838;2023-05-17T02:45:30;7.30;;;2.13;;
70558;SDS011;58108;48.094;11.838;2023-05-17T02:47:55;5.60;;;2.03;;
70558;SDS011;58108;48.094;11.838;2023-05-17T02:50:20;5.47;;;2.10;;
70558;SDS011;58108;48.094;11.838;2023-05-17T02:52:45;6.40;;;2.30;;
70558;SDS011;58108;48.094;11.838;2023-05-17T02:55:10;7.47;;;2.20;;
70558;SDS011;58108;48.094;11.838;2023-05-17T02:57:36;6.40;;;2.10;;
70558;SDS011;58108;48.094;11.838;2023-05-17T03:00:01;6.07;;;2.23;;
70558;SDS011;58108;48.094;11.838;2023-05-17T03:02:27;8.38;;;2.47;;
70558;SDS011;58108;48.094;11.838;2023-05-17T03:04:52;6.87;;;2.30;;
70558;SDS011;58108;48.094;11.838;2023-05-17T03:07:17;7.65;;;2.53;;
70558;SDS011;58108;48.094;11.838;2023-05-17T03:09:42;10.37;;;2.90;;
70558;SDS011;58108;48.094;11.838;2023-05-17T03:12:08;7.80;;;3.37;;
70558;SDS011;58108;48.094;11.838;2023-05-17T03:14:33;9.13;;;3.20;;
70558;SDS011;58108;48.094;11.838;2023-05-17T03:16:58;5.40;;;2.53;;
70558;SDS011;58108;48.094;11.838;2023-05-17T03:19:23;6.30;;;2.97;;
70558;SDS011;58108;48.094;11.838;2023-05-17T03:21:48;10.33;;;2.70;;
70558;SDS011;58108;48.094;11.838;2023-05-17T03:24:14;10.00;;;3.23;;
70558;SDS011;58108;48.094;11.838;2023-05-17T03:26:39;5.90;;;3.00;;
70558;SDS011;58108;48.094;11.838;2023-05-17T03:29:04;6.53;;;2.83;;
70558;SDS011;58108;48.094;11.838;2023-05-17T03:31:29;4.67;;;2.30;;
70558;SDS011;58108;48.094;11.838;2023-05-17T03:33:55;6.37;;;2.73;;
70558;SDS011;58108;48.094;11.838;2023-05-17T03:36:20;8.00;;;2.67;;
70558;SDS011;58108;48.094;11.838;2023-05-17T03:38:45;7.87;;;2.70;;
70558;SDS011;58108;48.094;11.838;2023-05-17T03:41:10;6.40;;;2.50;;
70558;SDS011;58108;48.094;11.838;2023-05-17T03:43:35;7.50;;;2.70;;
70558;SDS011;58108;48.094;11.838;2023-05-17T03:46:01;6.77;;;2.50;;
70558;SDS011;58108;48.094;11.838;2023-05-17T03:48:26;7.93;;;2.80;;
70558;SDS011;58108;48.094;11.838;2023-05-17T03:50:51;7.30;;;3.10;;
70558;SDS011;58108;48.094;11.838;2023-05-17T03:53:16;8.47;;;3.13;;
70558;SDS011;58108;48.094;11.838;2023-05-17T03:55:41;5.40;;;2.13;;
70558;SDS011;58108;48.094;11.838;2023-05-17T03:58:07;6.43;;;2.10;;
70558;SDS011;58108;48.094;11.838;2023-05-17T04:00:32;6.47;;;2.47;;
70558;SDS011;58108;48.094;11.838;2023-05-17T04:02:57;6.17;;;2.40;;
70558;SDS011;58108;48.094;11.838;2023-05-17T04:05:22;8.43;;;3.17;;
70558;SDS011;58108;48.094;11.838;2023-05-17T04:07:48;8.73;;;2.83;;
70558;SDS011;58108;48.094;11.838;2023-05-17T04:10:13;7.10;;;2.10;;
70558;SDS011;58108;48.094;11.838;2023-05-17T04:12:38;4.93;;;1.90;;
70558;SDS011;58108;48.094;11.838;2023-05-17T04:15:04;6.10;;;2.20;;
70558;SDS011;58108;48.094;11.838;2023-05-17T04:17:29;6.28;;;2.10;;
70558;SDS011;58108;48.094;11.838;2023-05-17T04:19:55;6.03;;;2.20;;
70558;SDS011;58108;48.094;11.838;2023-05-17T04:22:20;6.90;;;2.10;;
70558;SDS011;58108;48.094;11.838;2023-05-17T04:24:45;6.03;;;2.13;;
70558;SDS011;58108;48.094;11.838;2023-05-17T04:27:10;5.43;;;2.00;;
70558;SDS011;58108;48.094;11.838;2023-05-17T04:29:36;3.87;;;1.90;;
70558;SDS011;58108;48.094;11.838;2023-05-17T04:32:01;6.10;;;2.00;;
70558;SDS011;58108;48.094;11.838;2023-05-17T04:34:26;6.13;;;1.70;;
70558;SDS011;58108;48.094;11.838;2023-05-17T04:36:51;4.37;;;1.40;;
70558;SDS011;58108;48.094;11.838;2023-05-17T04:39:17;4.67;;;1.53;;
70558;SDS011;58108;48.094;11.838;2023-05-17T04:41:42;7.30;;;2.57;;
70558;SDS011;58108;48.094;11.838;2023-05-17T04:44:07;5.47;;;1.97;;
70558;SDS011;58108;48.094;11.838;2023-05-17T04:46:32;4.43;;;1.50;;
70558;SDS011;58108;48.094;11.838;2023-05-17T04:48:57;6.60;;;1.87;;
70558;SDS011;58108;48.094;11.838;2023-05-17T04:51:23;6.33;;;1.93;;
70558;SDS011;58108;48.094;11.838;2023-05-17T04:53:48;6.60;;;2.03;;
70558;SDS011;58108;48.094;11.838;2023-05-17T04:56:13;5.43;;;1.90;;
70558;SDS011;58108;48.094;11.838;2023-05-17T04:58:38;7.53;;;2.00;;
70558;SDS011;58108;48.094;11.838;2023-05-17T05:01:04;6.17;;;2.03;;
70558;SDS011;58108;48.094;11.838;2023-05-17T05:03:29;7.33;;;2.37;;
70558;SDS011;58108;48.094;11.838;2023-05-17T05:05:54;10.10;;;2.30;;
70558;SDS011;58108;48.094;11.838;2023-05-17T05:08:19;7.47;;;2.07;;
70558;SDS011;58108;48.094;11.838;2023-05-17T05:10:45;5.03;;;1.83;;
70558;SDS011;58108;48.094;11.838;2023-05-17T05:13:10;6.00;;;2.20;;
70558;SDS011;58108;48.094;11.838;2023-05-17T05:15:35;5.80;;;2.03;;
70558;SDS011;58108;48.094;11.838;2023-05-17T05:18:01;5.00;;;1.73;;
70558;SDS011;58108;48.094;11.838;2023-05-17T05:20:26;6.07;;;1.90;;
70558;SDS011;58108;48.094;11.838;2023-05-17T05:22:52;6.23;;;1.37;;
70558;SDS011;58108;48.094;11.838;2023-05-17T05:25:17;5.10;;;1.70;;
70558;SDS011;58108;48.094;11.838;2023-05-17T05:27:42;4.97;;;1.33;;
70558;SDS011;58108;48.094;11.838;2023-05-17T05:30:07;6.17;;;1.60;;
70558;SDS011;58108;48.094;11.838;2023-05-17T05:32:33;3.97;;;1.33;;
70558;SDS011;58108;48.094;11.838;2023-05-17T05:34:58;4.10;;;1.80;;
70558;SDS011;58108;48.094;11.838;2023-05-17T05:37:23;6.77;;;2.00;;
70558;SDS011;58108;48.094;11.838;2023-05-17T05:39:49;5.20;;;2.20;;
70558;SDS011;58108;48.094;11.838;2023-05-17T05:42:14;9.03;;;1.90;;
70558;SDS011;58108;48.094;11.838;2023-05-17T05:44:39;7.93;;;2.63;;
70558;SDS011;58108;48.094;11.838;2023-05-17T05:47:04;10.63;;;3.10;;
70558;SDS011;58108;48.094;11.838;2023-05-17T05:49:30;6.27;;;2.00;;
70558;SDS011;58108;48.094;11.838;2023-05-17T05:51:55;7.83;;;2.40;;
70558;SDS011;58108;48.094;11.838;2023-05-17T05:54:20;6.33;;;2.00;;
70558;SDS011;58108;48.094;11.838;2023-05-17T05:56:45;5.10;;;1.20;;
70558;SDS011;58108;48.094;11.838;2023-05-17T05:59:10;8.00;;;1.33;;
70558;SDS011;58108;48.094;11.838;2023-05-17T06:01:36;5.03;;;1.60;;
70558;SDS011;58108;48.094;11.838;2023-05-17T06:04:02;5.38;;;1.35;;
70558;SDS011;58108;48.094;11.838;2023-05-17T06:06:27;4.50;;;1.80;;
70558;SDS011;58108;48.094;11.838;2023-05-17T06:08:52;3.93;;;1.20;;
70558;SDS011;58108;48.094;11.838;2023-05-17T06:11:17;4.33;;;0.90;;
70558;SDS011;58108;48.094;11.838;2023-05-17T06:13:44;3.97;;;1.15;;
70558;SDS011;58108;48.094;11.838;2023-05-17T06:16:09;4.17;;;1.10;;
70558;SDS011;58108;48.094;11.838;2023-05-17T06:18:34;6.93;;;1.60;;
70558;SDS011;58108;48.094;11.838;2023-05-17T06:20:59;5.47;;;1.10;;
70558;SDS011;58108;48.094;11.838;2023-05-17T06:23:25;5.13;;;1.20;;
70558;SDS011;58108;48.094;11.838;2023-05-17T06:25:50;7.00;;;1.57;;
70558;SDS011;58108;48.094;11.838;2023-05-17T06:28:16;2.95;;;0.73;;
70558;SDS011;58108;48.094;11.838;2023-05-17T06:30:41;5.17;;;1.10;;
70558;SDS011;58108;48.094;11.838;2023-05-17T06:33:06;5.90;;;1.07;;
70558;SDS011;58108;48.094;11.838;2023-05-17T06:35:33;3.75;;;1.13;;
70558;SDS011;58108;48.094;11.838;2023-05-17T06:37:58;5.30;;;1.13;;
70558;SDS011;58108;48.094;11.838;2023-05-17T06:40:23;2.53;;;0.80;;
70558;SDS011;58108;48.094;11.838;2023-05-17T06:42:48;3.33;;;0.90;;
70558;SDS011;58108;48.094;11.838;2023-05-17T06:45:14;4.43;;;1.30;;
70558;SDS011;58108;48.094;11.838;2023-05-17T06:47:39;3.50;;;0.90;;
70558;SDS011;58108;48.094;11.838;2023-05-17T06:50:05;4.03;;;0.97;;
70558;SDS011;58108;48.094;11.838;2023-05-17T06:52:30;4.38;;;0.68;;
70558;SDS011;58108;48.094;11.838;2023-05-17T06:54:56;4.40;;;1.10;;
70558;SDS011;58108;48.094;11.838;2023-05-17T06:57:21;3.53;;;0.90;;
70558;SDS011;58108;48.094;11.838;2023-05-17T06:59:47;4.05;;;1.13;;
70558;SDS011;58108;48.094;11.838;2023-05-17T07:02:12;5.70;;;1.40;;
70558;SDS011;58108;48.094;11.838;2023-05-17T07:04:37;4.37;;;1.17;;
70558;SDS011;58108;48.094;11.838;2023-05-17T07:07:03;5.77;;;1.23;;
70558;SDS011;58108;48.094;11.838;2023-05-17T07:09:28;5.47;;;0.90;;
70558;SDS011;58108;48.094;11.838;2023-05-17T07:11:53;7.23;;;1.23;;
70558;SDS011;58108;48.094;11.838;2023-05-17T07:14:18;3.70;;;1.25;;
70558;SDS011;58108;48.094;11.838;2023-05-17T07:16:43;5.33;;;1.20;;
70558;SDS011;58108;48.094;11.838;2023-05-17T07:19:08;3.83;;;1.13;;
70558;SDS011;58108;48.094;11.838;2023-05-17T07:21:34;3.70;;;1.30;;
70558;SDS011;58108;48.094;11.838;2023-05-17T07:23:59;4.45;;;1.20;;
70558;SDS011;58108;48.094;11.838;2023-05-17T07:26:25;5.23;;;1.53;;
70558;SDS011;58108;48.094;11.838;2023-05-17T07:28:50;3.97;;;1.03;;
70558;SDS011;58108;48.094;11.838;2023-05-17T07:31:15;5.30;;;1.10;;
70558;SDS011;58108;48.094;11.838;2023-05-17T07:33:40;3.83;;;1.20;;
70558;SDS011;58108;48.094;11.838;2023-05-17T07:36:06;4.47;;;1.10;;
70558;SDS011;58108;48.094;11.838;2023-05-17T07:38:31;4.63;;;1.00;;
70558;SDS011;58108;48.094;11.838;2023-05-17T07:40:59;5.30;;;1.45;;
70558;SDS011;58108;48.094;11.838;2023-05-17T07:43:24;5.03;;;1.07;;
70558;SDS011;58108;48.094;11.838;2023-05-17T07:45:49;4.63;;;1.10;;
70558;SDS011;58108;48.094;11.838;2023-05-17T07:48:15;3.43;;;1.30;;
70558;SDS011;58108;48.094;11.838;2023-05-17T07:50:40;3.43;;;0.87;;
70558;SDS011;58108;48.094;11.838;2023-05-17T07:53:05;4.20;;;1.40;;
70558;SDS011;58108;48.094;11.838;2023-05-17T07:55:30;4.07;;;1.00;;
70558;SDS011;58108;48.094;11.838;2023-05-17T07:57:56;4.43;;;1.27;;
70558;SDS011;58108;48.094;11.838;2023-05-17T08:00:21;5.10;;;1.47;;
70558;SDS011;58108;48.094;11.838;2023-05-17T08:02:46;3.67;;;1.00;;
70558;SDS011;58108;48.094;11.838;2023-05-17T08:05:11;4.57;;;1.40;;
70558;SDS011;58108;48.094;11.838;2023-05-17T08:07:37;4.43;;;1.10;;
70558;SDS011;58108;48.094;11.838;2023-05-17T08:10:02;4.43;;;0.97;;
70558;SDS011;58108;48.094;11.838;2023-05-17T08:12:27;5.37;;;0.90;;
70558;SDS011;58108;48.094;11.838;2023-05-17T08:14:53;3.90;;;0.97;;
70558;SDS011;58108;48.094;11.838;2023-05-17T08:17:18;5.03;;;1.30;;
70558;SDS011;58108;48.094;11.838;2023-05-17T08:19:43;6.00;;;1.30;;
70558;SDS011;58108;48.094;11.838;2023-05-17T08:22:08;4.07;;;1.30;;
70558;SDS011;58108;48.094;11.838;2023-05-17T08:24:34;3.93;;;1.10;;
70558;SDS011;58108;48.094;11.838;2023-05-17T08:26:59;6.25;;;1.50;;
70558;SDS011;58108;48.094;11.838;2023-05-17T08:29:25;5.77;;;1.27;;
70558;SDS011;58108;48.094;11.838;2023-05-17T08:31:50;4.70;;;1.00;;
70558;SDS011;58108;48.094;11.838;2023-05-17T08:34:16;3.75;;;1.40;;
70558;SDS011;58108;48.094;11.838;2023-05-17T08:36:41;5.93;;;1.47;;
70558;SDS011;58108;48.094;11.838;2023-05-17T08:39:06;5.43;;;1.67;;
70558;SDS011;58108;48.094;11.838;2023-05-17T08:41:32;5.07;;;1.50;;
70558;SDS011;58108;48.094;11.838;2023-05-17T08:43:57;5.57;;;1.50;;
70558;SDS011;58108;48.094;11.838;2023-05-17T08:46:23;4.05;;;1.70;;
70558;SDS011;58108;48.094;11.838;2023-05-17T08:48:50;4.50;;;1.70;;
70558;SDS011;58108;48.094;11.838;2023-05-17T08:51:16;4.93;;;1.67;;
70558;SDS011;58108;48.094;11.838;2023-05-17T08:53:43;5.75;;;1.70;;
70558;SDS011;58108;48.094;11.838;2023-05-17T08:56:10;4.30;;;1.65;;
70558;SDS011;58108;48.094;11.838;2023-05-17T08:58:36;5.17;;;1.63;;
70558;SDS011;58108;48.094;11.838;2023-05-17T09:01:03;4.03;;;1.48;;
70558;SDS011;58108;48.094;11.838;2023-05-17T09:03:29;4.07;;;1.90;;
70558;SDS011;58108;48.094;11.838;2023-05-17T09:05:55;3.80;;;1.40;;
70558;SDS011;58108;48.094;11.838;2023-05-17T09:08:22;4.35;;;1.50;;
70558;SDS011;58108;48.094;11.838;2023-05-17T09:10:48;4.77;;;1.50;;
70558;SDS011;58108;48.094;11.838;2023-05-17T09:13:13;3.83;;;1.27;;
70558;SDS011;58108;48.094;11.838;2023-05-17T09:15:43;5.53;;;1.52;;
70558;SDS011;58108;48.094;11.838;2023-05-17T09:18:09;4.20;;;1.42;;
70558;SDS011;58108;48.094;11.838;2023-05-17T09:20:35;4.47;;;1.60;;
70558;SDS011;58108;48.094;11.838;2023-05-17T09:23:01;4.07;;;1.70;;
70558;SDS011;58108;48.094;11.838;2023-05-17T09:25:27;5.87;;;1.90;;
70558;SDS011;58108;48.094;11.838;2023-05-17T09:27:52;4.20;;;1.80;;
70558;SDS011;58108;48.094;11.838;2023-05-17T09:30:17;4.43;;;1.70;;
70558;SDS011;58108;48.094;11.838;2023-05-17T09:32:43;5.67;;;1.60;;
70558;SDS011;58108;48.094;11.838;2023-05-17T09:35:11;5.90;;;1.83;;
70558;SDS011;58108;48.094;11.838;2023-05-17T09:37:36;5.27;;;1.30;;
70558;SDS011;58108;48.094;11.838;2023-05-17T09:40:02;3.40;;;1.40;;
70558;SDS011;58108;48.094;11.838;2023-05-17T09:42:28;4.18;;;1.30;;
70558;SDS011;58108;48.094;11.838;2023-05-17T09:44:56;4.27;;;1.40;;
70558;SDS011;58108;48.094;11.838;2023-05-17T09:47:30;5.35;;;1.27;;
70558;SDS011;58108;48.094;11.838;2023-05-17T09:49:58;4.20;;;1.50;;
70558;SDS011;58108;48.094;11.838;2023-05-17T09:52:24;5.80;;;1.43;;
70558;SDS011;58108;48.094;11.838;2023-05-17T09:54:54;6.28;;;1.55;;
70558;SDS011;58108;48.094;11.838;2023-05-17T09:57:20;4.03;;;1.65;;
70558;SDS011;58108;48.094;11.838;2023-05-17T09:59:45;7.50;;;1.70;;
70558;SDS011;58108;48.094;11.838;2023-05-17T10:02:12;4.40;;;1.40;;
70558;SDS011;58108;48.094;11.838;2023-05-17T10:04:41;3.72;;;1.70;;
70558;SDS011;58108;48.094;11.838;2023-05-17T10:07:07;4.50;;;1.50;;
70558;SDS011;58108;48.094;11.838;2023-05-17T10:09:32;3.58;;;1.90;;
70558;SDS011;58108;48.094;11.838;2023-05-17T10:12:00;4.90;;;1.50;;
70558;SDS011;58108;48.094;11.838;2023-05-17T10:14:27;4.20;;;1.60;;
70558;SDS011;58108;48.094;11.838;2023-05-17T10:16:53;3.00;;;1.60;;
70558;SDS011;58108;48.094;11.838;2023-05-17T10:19:19;6.50;;;1.77;;
70558;SDS011;58108;48.094;11.838;2023-05-17T10:21:45;6.25;;;1.90;;
70558;SDS011;58108;48.094;11.838;2023-05-17T10:24:11;4.25;;;1.50;;
70558;SDS011;58108;48.094;11.838;2023-05-17T10:26:37;5.67;;;2.00;;
70558;SDS011;58108;48.094;11.838;2023-05-17T10:29:02;5.40;;;1.63;;
70558;SDS011;58108;48.094;11.838;2023-05-17T10:31:28;4.05;;;1.80;;
70558;SDS011;58108;48.094;11.838;2023-05-17T10:33:54;4.67;;;1.63;;
70558;SDS011;58108;48.094;11.838;2023-05-17T10:36:19;4.13;;;1.70;;
70558;SDS011;58108;48.094;11.838;2023-05-17T10:38:45;5.38;;;1.90;;
70558;SDS011;58108;48.094;11.838;2023-05-17T10:41:11;4.20;;;1.40;;
70558;SDS011;58108;48.094;11.838;2023-05-17T10:43:37;4.40;;;1.20;;
70558;SDS011;58108;48.094;11.838;2023-05-17T10:46:10;3.97;;;1.65;;
70558;SDS011;58108;48.094;11.838;2023-05-17T10:48:35;3.92;;;1.52;;
70558;SDS011;58108;48.094;11.838;2023-05-17T10:51:05;7.90;;;1.60;;
70558;SDS011;58108;48.094;11.838;2023-05-17T10:53:31;5.97;;;1.55;;
70558;SDS011;58108;48.094;11.838;2023-05-17T10:55:56;4.83;;;1.67;;
70558;SDS011;58108;48.094;11.838;2023-05-17T10:58:23;5.50;;;1.90;;
70558;SDS011;58108;48.094;11.838;2023-05-17T11:00:50;3.97;;;1.50;;
70558;SDS011;58108;48.094;11.838;2023-05-17T11:03:27;4.85;;;1.80;;
70558;SDS011;58108;48.094;11.838;2023-05-17T11:08:34;4.75;;;1.90;;
70558;SDS011;58108;48.094;11.838;2023-05-17T11:11:09;5.40;;;1.60;;
70558;SDS011;58108;48.094;11.838;2023-05-17T11:13:42;4.63;;;1.50;;
70558;SDS011;58108;48.094;11.838;2023-05-17T11:16:07;4.93;;;1.77;;
70558;SDS011;58108;48.094;11.838;2023-05-17T11:18:48;3.60;;;1.47;;
70558;SDS011;58108;48.094;11.838;2023-05-17T11:21:13;4.25;;;1.50;;
70558;SDS011;58108;48.094;11.838;2023-05-17T11:23:40;5.93;;;1.60;;
70558;SDS011;58108;48.094;11.838;2023-05-17T11:26:15;4.80;;;1.50;;
70558;SDS011;58108;48.094;11.838;2023-05-17T11:28:41;5.30;;;1.53;;
70558;SDS011;58108;48.094;11.838;2023-05-17T11:31:06;4.23;;;1.73;;
70558;SDS011;58108;48.094;11.838;2023-05-17T11:34:04;5.32;;;1.40;;
70558;SDS011;58108;48.094;11.838;2023-05-17T11:36:24;5.53;;;1.60;;
70558;SDS011;58108;48.094;11.838;2023-05-17T11:38:49;4.53;;;1.50;;
70558;SDS011;58108;48.094;11.838;2023-05-17T11:41:32;4.30;;;1.63;;
70558;SDS011;58108;48.094;11.838;2023-05-17T11:44:00;5.00;;;1.50;;
70558;SDS011;58108;48.094;11.838;2023-05-17T11:46:26;4.63;;;1.40;;
70558;SDS011;58108;48.094;11.838;2023-05-17T11:48:51;5.20;;;1.43;;
70558;SDS011;58108;48.094;11.838;2023-05-17T11:51:17;4.63;;;1.00;;
70558;SDS011;58108;48.094;11.838;2023-05-17T11:53:44;3.85;;;0.90;;
70558;SDS011;58108;48.094;11.838;2023-05-17T11:56:11;4.15;;;1.05;;
70558;SDS011;58108;48.094;11.838;2023-05-17T11:58:36;3.90;;;1.00;;
70558;SDS011;58108;48.094;11.838;2023-05-17T12:01:01;4.32;;;1.05;;
70558;SDS011;58108;48.094;11.838;2023-05-17T12:03:28;3.97;;;1.07;;
70558;SDS011;58108;48.094;11.838;2023-05-17T12:06:04;4.05;;;1.00;;
70558;SDS011;58108;48.094;11.838;2023-05-17T12:08:30;4.80;;;1.50;;
70558;SDS011;58108;48.094;11.838;2023-05-17T12:10:56;6.25;;;1.60;;
70558;SDS011;58108;48.094;11.838;2023-05-17T12:13:21;4.20;;;1.15;;
70558;SDS011;58108;48.094;11.838;2023-05-17T12:15:49;3.30;;;1.00;;
70558;SDS011;58108;48.094;11.838;2023-05-17T12:18:15;4.47;;;1.15;;
70558;SDS011;58108;48.094;11.838;2023-05-17T12:20:53;4.38;;;1.20;;
70558;SDS011;58108;48.094;11.838;2023-05-17T12:23:24;5.40;;;1.20;;
70558;SDS011;58108;48.094;11.838;2023-05-17T12:25:49;4.93;;;1.20;;
70558;SDS011;58108;48.094;11.838;2023-05-17T12:28:17;3.13;;;1.10;;
70558;SDS011;58108;48.094;11.838;2023-05-17T12:30:50;3.85;;;0.98;;
70558;SDS011;58108;48.094;11.838;2023-05-17T12:33:15;5.68;;;1.10;;
70558;SDS011;58108;48.094;11.838;2023-05-17T12:35:41;5.47;;;1.00;;
70558;SDS011;58108;48.094;11.838;2023-05-17T12:38:06;4.07;;;1.00;;
70558;SDS011;58108;48.094;11.838;2023-05-17T12:40:31;2.73;;;0.70;;
70558;SDS011;58108;48.094;11.838;2023-05-17T12:43:00;3.60;;;0.97;;
70558;SDS011;58108;48.094;11.838;2023-05-17T12:45:25;3.28;;;0.90;;
70558;SDS011;58108;48.094;11.838;2023-05-17T12:47:50;2.70;;;0.50;;
70558;SDS011;58108;48.094;11.838;2023-05-17T12:50:23;3.83;;;0.60;;
70558;SDS011;58108;48.094;11.838;2023-05-17T12:52:49;4.47;;;0.70;;
70558;SDS011;58108;48.094;11.838;2023-05-17T12:55:14;3.50;;;1.27;;
70558;SDS011;58108;48.094;11.838;2023-05-17T12:57:46;3.80;;;1.00;;
70558;SDS011;58108;48.094;11.838;2023-05-17T13:00:12;4.63;;;0.70;;
70558;SDS011;58108;48.094;11.838;2023-05-17T13:02:39;3.00;;;0.80;;
70558;SDS011;58108;48.094;11.838;2023-05-17T13:07:39;4.57;;;0.80;;
70558;SDS011;58108;48.094;11.838;2023-05-17T13:10:05;7.87;;;3.23;;
70558;SDS011;58108;48.094;11.838;2023-05-17T13:12:30;5.53;;;2.27;;
70558;SDS011;58108;48.094;11.838;2023-05-17T13:14:55;4.93;;;1.10;;
70558;SDS011;58108;48.094;11.838;2023-05-17T13:17:24;4.73;;;1.00;;
70558;SDS011;58108;48.094;11.838;2023-05-17T13:19:49;4.00;;;1.02;;
70558;SDS011;58108;48.094;11.838;2023-05-17T13:22:15;3.53;;;0.70;;
70558;SDS011;58108;48.094;11.838;2023-05-17T13:24:40;2.10;;;0.67;;
70558;SDS011;58108;48.094;11.838;2023-05-17T13:27:05;4.03;;;0.80;;
70558;SDS011;58108;48.094;11.838;2023-05-17T13:29:31;5.13;;;0.93;;
70558;SDS011;58108;48.094;11.838;2023-05-17T13:31:57;4.68;;;1.13;;
70558;SDS011;58108;48.094;11.838;2023-05-17T13:34:22;3.90;;;0.97;;
70558;SDS011;58108;48.094;11.838;2023-05-17T13:36:47;3.93;;;1.20;;
70558;SDS011;58108;48.094;11.838;2023-05-17T13:39:12;2.43;;;0.83;;
70558;SDS011;58108;48.094;11.838;2023-05-17T13:41:38;3.73;;;0.90;;
70558;SDS011;58108;48.094;11.838;2023-05-17T13:44:03;3.17;;;1.23;;
70558;SDS011;58108;48.094;11.838;2023-05-17T13:46:29;2.60;;;0.90;;
70558;SDS011;58108;48.094;11.838;2023-05-17T13:48:54;2.60;;;0.73;;
70558;SDS011;58108;48.094;11.838;2023-05-17T13:51:19;3.63;;;0.83;;
70558;SDS011;58108;48.094;11.838;2023-05-17T13:53:44;3.97;;;0.80;;
70558;SDS011;58108;48.094;11.838;2023-05-17T13:56:09;2.97;;;0.90;;
70558;SDS011;58108;48.094;11.838;2023-05-17T13:58:35;3.07;;;1.00;;
70558;SDS011;58108;48.094;11.838;2023-05-17T14:01:00;3.33;;;1.00;;
70558;SDS011;58108;48.094;11.838;2023-05-17T14:03:25;4.13;;;1.47;;
70558;SDS011;58108;48.094;11.838;2023-05-17T14:05:50;2.97;;;1.10;;
70558;SDS011;58108;48.094;11.838;2023-05-17T14:08:16;3.50;;;0.80;;
70558;SDS011;58108;48.094;11.838;2023-05-17T14:10:42;5.77;;;0.77;;
70558;SDS011;58108;48.094;11.838;2023-05-17T14:13:07;2.77;;;0.80;;
70558;SDS011;58108;48.094;11.838;2023-05-17T14:15:32;2.10;;;0.70;;
70558;SDS011;58108;48.094;11.838;2023-05-17T14:18:02;2.83;;;0.80;;
70558;SDS011;58108;48.094;11.838;2023-05-17T14:20:27;3.07;;;0.70;;
70558;SDS011;58108;48.094;11.838;2023-05-17T14:22:52;3.10;;;0.87;;
70558;SDS011;58108;48.094;11.838;2023-05-17T14:25:17;3.03;;;0.70;;
70558;SDS011;58108;48.094;11.838;2023-05-17T14:27:42;3.17;;;0.67;;
70558;SDS011;58108;48.094;11.838;2023-05-17T14:30:08;2.03;;;0.53;;
70558;SDS011;58108;48.094;11.838;2023-05-17T14:32:33;3.97;;;0.80;;
70558;SDS011;58108;48.094;11.838;2023-05-17T14:35:00;4.00;;;0.82;;
70558;SDS011;58108;48.094;11.838;2023-05-17T14:37:25;3.33;;;0.63;;
70558;SDS011;58108;48.094;11.838;2023-05-17T14:39:50;3.07;;;0.50;;
70558;SDS011;58108;48.094;11.838;2023-05-17T14:42:15;2.70;;;0.50;;